createdAt,value
2023-03-04T00:02:19.092Z,0.40
2023-03-04T00:04:45.811Z,0.30
2023-03-04T00:07:16.733Z,0.30
2023-03-04T00:09:46.916Z,0.30
2023-03-04T00:12:13.529Z,0.40
2023-03-04T00:14:40.636Z,0.40
2023-03-04T00:17:07.667Z,0.50
2023-03-04T00:19:35.467Z,0.40
2023-03-04T00:22:04.092Z,0.40
2023-03-04T00:24:31.035Z,0.30
2023-03-04T00:26:57.600Z,0.30
2023-03-04T00:29:24.360Z,0.30
2023-03-04T00:31:50.998Z,0.40
2023-03-04T00:34:17.697Z,0.40
2023-03-04T00:36:44.898Z,0.40
2023-03-04T00:39:12.785Z,0.40
2023-03-04T00:41:39.639Z,0.40
2023-03-04T00:44:06.736Z,0.30
2023-03-04T00:46:33.515Z,0.40
2023-03-04T00:49:00.227Z,0.40
2023-03-04T00:51:26.915Z,0.40
2023-03-04T00:53:53.641Z,0.30
2023-03-04T00:56:20.223Z,0.40
2023-03-04T00:58:46.945Z,0.40
2023-03-04T01:01:13.580Z,0.30
2023-03-04T01:03:41.560Z,0.30
2023-03-04T01:06:09.112Z,0.40
2023-03-04T01:08:36.283Z,0.30
2023-03-04T01:11:03.146Z,0.35
2023-03-04T01:13:29.722Z,0.30
2023-03-04T01:15:57.745Z,0.40
2023-03-04T01:18:24.873Z,0.30
2023-03-04T01:20:52.383Z,0.40
2023-03-04T01:23:19.062Z,0.40
2023-03-04T01:25:45.754Z,0.40
2023-03-04T01:28:12.439Z,0.30
2023-03-04T01:30:41.121Z,0.30
2023-03-04T01:33:07.737Z,0.40
2023-03-04T01:35:34.439Z,0.30
2023-03-04T01:38:01.061Z,0.38
2023-03-04T01:40:27.663Z,0.20
2023-03-04T01:42:54.898Z,0.30
2023-03-04T01:45:21.537Z,0.40
2023-03-04T01:47:50.066Z,0.30
2023-03-04T01:50:28.341Z,0.30
2023-03-04T01:52:55.148Z,0.38
2023-03-04T01:55:23.200Z,0.30
2023-03-04T01:57:51.361Z,0.30
2023-03-04T02:00:31.304Z,0.30
2023-03-04T02:03:20.079Z,0.30
2023-03-04T02:05:49.638Z,0.30
2023-03-04T02:08:21.284Z,0.30
2023-03-04T02:10:48.616Z,0.30
2023-03-04T02:13:15.849Z,0.30
2023-03-04T02:15:44.298Z,0.30
2023-03-04T02:18:23.778Z,0.40
2023-03-04T02:21:09.603Z,0.30
2023-03-04T02:23:48.039Z,0.30
2023-03-04T02:26:26.494Z,0.30
2023-03-04T02:28:55.420Z,0.30
2023-03-04T02:31:33.137Z,0.30
2023-03-04T02:34:03.257Z,0.30
2023-03-04T02:36:30.535Z,0.40
2023-03-04T02:39:07.132Z,0.30
2023-03-04T02:41:34.359Z,0.30
2023-03-04T02:44:01.467Z,0.30
2023-03-04T02:46:28.268Z,0.40
2023-03-04T02:48:55.179Z,0.30
2023-03-04T02:51:21.877Z,0.40
2023-03-04T02:53:48.464Z,0.40
2023-03-04T02:56:15.218Z,0.30
2023-03-04T02:58:42.001Z,0.30
2023-03-04T03:01:10.316Z,0.30
2023-03-04T03:03:37.188Z,0.30
2023-03-04T03:06:04.370Z,0.30
2023-03-04T03:08:31.199Z,0.30
2023-03-04T03:10:58.586Z,0.35
2023-03-04T03:13:26.431Z,0.30
2023-03-04T03:15:53.264Z,0.30
2023-03-04T03:18:23.288Z,0.30
2023-03-04T03:20:50.467Z,0.28
2023-03-04T03:23:18.251Z,0.30
2023-03-04T03:25:44.930Z,0.30
2023-03-04T03:28:12.692Z,0.30
2023-03-04T03:30:39.301Z,0.30
2023-03-04T03:33:06.600Z,0.30
2023-03-04T03:35:34.409Z,0.30
2023-03-04T03:38:01.059Z,0.32
2023-03-04T03:40:27.644Z,0.30
2023-03-04T03:42:54.196Z,0.30
2023-03-04T03:45:20.808Z,0.30
2023-03-04T03:47:47.522Z,0.30
2023-03-04T03:50:14.080Z,0.30
2023-03-04T03:52:40.796Z,0.30
2023-03-04T03:55:07.691Z,0.25
2023-03-04T03:57:34.364Z,0.30
2023-03-04T04:00:01.090Z,0.30
2023-03-04T04:02:27.792Z,0.30
2023-03-04T04:04:54.442Z,0.30
2023-03-04T04:07:21.095Z,0.38
2023-03-04T04:09:48.211Z,0.30
2023-03-04T04:12:16.757Z,0.30
2023-03-04T04:14:43.795Z,0.30
2023-03-04T04:17:10.948Z,0.30
2023-03-04T04:19:38.035Z,0.40
2023-03-04T04:22:04.631Z,0.30
2023-03-04T04:24:31.220Z,0.30
2023-03-04T04:26:58.303Z,0.30
2023-03-04T04:29:25.004Z,0.30
2023-03-04T04:31:51.699Z,0.30
2023-03-04T04:34:18.307Z,0.30
2023-03-04T04:36:45.095Z,0.30
2023-03-04T04:39:11.695Z,0.30
2023-03-04T04:41:41.327Z,0.30
2023-03-04T04:44:08.527Z,0.40
2023-03-04T04:46:35.427Z,0.30
2023-03-04T04:49:02.174Z,0.30
2023-03-04T04:51:29.308Z,0.35
2023-03-04T04:53:56.264Z,0.30
2023-03-04T04:56:26.402Z,0.30
2023-03-04T04:58:58.304Z,0.30
2023-03-04T05:01:26.213Z,0.30
2023-03-04T05:03:53.404Z,0.40
2023-03-04T05:06:21.301Z,0.30
2023-03-04T05:08:48.381Z,0.30
2023-03-04T05:11:15.794Z,0.30
2023-03-04T05:13:42.681Z,0.30
2023-03-04T05:16:09.858Z,0.30
2023-03-04T05:18:36.659Z,0.30
2023-03-04T05:21:04.385Z,0.30
2023-03-04T05:23:36.773Z,0.30
2023-03-04T05:26:04.920Z,0.20
2023-03-04T05:28:32.575Z,0.30
2023-03-04T05:30:59.281Z,0.38
2023-03-04T05:33:26.216Z,0.30
2023-03-04T05:35:54.209Z,0.30
2023-03-04T05:38:21.430Z,0.30
2023-03-04T05:40:48.867Z,0.30
2023-03-04T05:43:15.856Z,0.32
2023-03-04T05:45:42.936Z,0.30
2023-03-04T05:48:09.711Z,0.30
2023-03-04T05:50:36.542Z,0.30
2023-03-04T05:53:03.152Z,0.30
2023-03-04T05:55:30.144Z,0.30
2023-03-04T05:57:57.683Z,0.30
2023-03-04T06:00:25.222Z,0.30
2023-03-04T06:02:52.026Z,0.30
2023-03-04T06:05:19.364Z,0.30
2023-03-04T06:07:46.315Z,0.30
2023-03-04T06:10:15.347Z,0.30
2023-03-04T06:12:42.730Z,0.30
2023-03-04T06:15:10.530Z,0.30
2023-03-04T06:17:39.460Z,0.30
2023-03-04T06:20:07.824Z,0.30
2023-03-04T06:22:35.280Z,0.30
2023-03-04T06:25:01.969Z,0.30
2023-03-04T06:27:28.680Z,0.32
2023-03-04T06:29:55.389Z,0.30
2023-03-04T06:32:22.464Z,0.30
2023-03-04T06:34:49.109Z,0.30
2023-03-04T06:37:15.749Z,0.30
2023-03-04T06:39:42.577Z,0.30
2023-03-04T06:42:09.222Z,0.30
2023-03-04T06:44:35.951Z,0.30
2023-03-04T06:47:02.819Z,0.30
2023-03-04T06:49:29.481Z,0.30
2023-03-04T06:51:56.063Z,0.30
2023-03-04T06:54:23.083Z,0.30
2023-03-04T06:56:49.882Z,0.30
2023-03-04T06:59:16.541Z,0.30
2023-03-04T07:01:43.166Z,0.30
2023-03-04T07:04:09.876Z,0.20
2023-03-04T07:06:36.538Z,0.30
2023-03-04T07:09:03.277Z,0.40
2023-03-04T07:11:29.983Z,0.30
2023-03-04T07:13:57.106Z,0.30
2023-03-04T07:16:23.942Z,0.30
2023-03-04T07:18:50.917Z,0.40
2023-03-04T07:21:19.078Z,0.30
2023-03-04T07:23:45.959Z,0.30
2023-03-04T07:26:12.908Z,0.30
2023-03-04T07:28:39.854Z,0.30
2023-03-04T07:31:33.605Z,0.30
2023-03-04T07:34:03.121Z,0.20
2023-03-04T07:36:29.860Z,0.30
2023-03-04T07:38:56.693Z,0.30
2023-03-04T07:41:26.166Z,0.30
2023-03-04T07:43:53.113Z,0.30
2023-03-04T07:46:20.365Z,0.30
2023-03-04T07:48:46.983Z,0.30
2023-03-04T07:51:16.863Z,0.30
2023-03-04T07:53:45.717Z,0.30
2023-03-04T07:56:14.825Z,0.30
2023-03-04T07:58:41.641Z,0.20
2023-03-04T08:01:16.266Z,0.20
2023-03-04T08:03:43.078Z,0.35
2023-03-04T08:06:12.806Z,0.30
2023-03-04T08:08:40.116Z,0.30
2023-03-04T08:11:08.610Z,0.30
2023-03-04T08:13:35.719Z,0.30
2023-03-04T08:16:02.813Z,0.20
2023-03-04T08:18:29.817Z,0.32
2023-03-04T08:20:56.563Z,0.20
2023-03-04T08:23:23.355Z,0.30
2023-03-04T08:25:50.183Z,0.32
2023-03-04T08:28:17.585Z,0.30
2023-03-04T08:30:44.450Z,0.30
2023-03-04T08:33:11.142Z,0.30
2023-03-04T08:35:39.794Z,0.28
2023-03-04T08:38:07.007Z,0.30
2023-03-04T08:40:34.006Z,0.30
2023-03-04T08:43:00.843Z,0.20
2023-03-04T08:45:27.654Z,0.20
2023-03-04T08:47:54.237Z,0.20
2023-03-04T08:50:22.494Z,0.20
2023-03-04T08:52:49.841Z,0.30
2023-03-04T08:55:16.520Z,0.20
2023-03-04T08:57:43.325Z,0.20
2023-03-04T09:00:10.784Z,0.20
2023-03-04T09:02:37.402Z,0.20
2023-03-04T09:05:04.715Z,0.30
2023-03-04T09:07:31.428Z,0.20
2023-03-04T09:09:58.109Z,0.25
2023-03-04T09:12:24.799Z,0.20
2023-03-04T09:15:04.476Z,0.20
2023-03-04T09:17:36.639Z,0.20
2023-03-04T09:20:04.880Z,0.30
2023-03-04T09:22:31.655Z,0.28
2023-03-04T09:24:58.321Z,0.30
2023-03-04T09:27:25.138Z,0.30
2023-03-04T09:29:51.783Z,0.30
2023-03-04T09:32:18.589Z,0.30
2023-03-04T09:34:45.567Z,0.20
2023-03-04T09:37:12.277Z,0.20
2023-03-04T09:39:38.992Z,0.20
2023-03-04T09:42:09.327Z,0.20
2023-03-04T09:44:46.399Z,0.20
2023-03-04T09:47:16.634Z,0.30
2023-03-04T09:49:54.956Z,0.20
2023-03-04T09:52:21.500Z,0.20
2023-03-04T09:55:06.511Z,0.20
2023-03-04T09:58:04.912Z,0.20
2023-03-04T10:00:35.656Z,0.30
2023-03-04T10:03:25.640Z,0.20
2023-03-04T10:05:59.556Z,0.20
2023-03-04T10:08:38.665Z,0.20
2023-03-04T10:11:13.088Z,0.20
2023-03-04T10:14:19.706Z,0.20
2023-03-04T10:16:49.183Z,0.25
2023-03-04T10:19:29.807Z,0.22
2023-03-04T10:21:56.569Z,0.20
2023-03-04T10:24:28.777Z,0.20
2023-03-04T10:27:04.990Z,0.20
2023-03-04T10:29:33.472Z,0.20
2023-03-04T10:32:00.303Z,0.20
2023-03-04T10:34:27.220Z,0.30
2023-03-04T10:37:07.144Z,0.20
2023-03-04T10:39:40.162Z,0.20
2023-03-04T10:42:15.825Z,0.20
2023-03-04T10:44:53.967Z,0.20
2023-03-04T10:47:25.317Z,0.30
2023-03-04T10:50:00.109Z,0.20
2023-03-04T10:52:47.439Z,0.20
2023-03-04T10:55:21.109Z,0.20
2023-03-04T10:58:03.447Z,0.20
2023-03-04T11:00:35.371Z,0.20
2023-03-04T11:03:29.974Z,0.20
2023-03-04T11:06:05.761Z,0.20
2023-03-04T11:08:32.411Z,0.20
2023-03-04T11:10:58.961Z,0.20
2023-03-04T11:13:27.135Z,0.20
2023-03-04T11:16:05.866Z,0.20
2023-03-04T11:18:44.572Z,0.20
2023-03-04T11:21:17.671Z,0.20
2023-03-04T11:24:04.640Z,0.20
2023-03-04T11:26:38.528Z,0.10
2023-03-04T11:29:16.990Z,0.20
2023-03-04T11:31:50.621Z,0.20
2023-03-04T11:37:16.800Z,0.20
2023-03-04T11:39:53.019Z,0.20
2023-03-04T11:42:33.691Z,0.20
2023-03-04T11:45:00.480Z,0.20
2023-03-04T11:47:30.028Z,0.10
2023-03-04T11:50:20.182Z,0.10
2023-03-04T11:53:20.332Z,0.20
2023-03-04T11:56:05.520Z,0.10
2023-03-04T11:58:59.811Z,0.10
2023-03-04T12:01:26.420Z,0.20
2023-03-04T12:04:10.418Z,0.10
2023-03-04T12:06:58.099Z,0.20
2023-03-04T12:09:43.183Z,0.20
2023-03-04T12:12:47.371Z,0.20
2023-03-04T12:15:13.894Z,0.20
2023-03-04T12:17:50.881Z,0.20
2023-03-04T12:20:47.313Z,0.10
2023-03-04T12:23:38.987Z,0.20
2023-03-04T12:26:20.018Z,0.20
2023-03-04T12:29:03.833Z,0.20
2023-03-04T12:31:34.071Z,0.10
2023-03-04T12:34:28.047Z,0.20
2023-03-04T12:36:57.365Z,0.20
2023-03-04T12:39:34.117Z,0.10
2023-03-04T12:42:28.283Z,0.20
2023-03-04T12:45:03.804Z,0.10
2023-03-04T12:47:30.409Z,0.20
2023-03-04T12:50:18.692Z,0.20
2023-03-04T12:53:11.577Z,0.10
2023-03-04T12:55:40.610Z,0.20
2023-03-04T12:58:16.520Z,0.20
2023-03-04T13:00:52.876Z,0.10
2023-03-04T13:03:38.704Z,0.10
2023-03-04T13:06:36.217Z,0.10
2023-03-04T13:09:16.595Z,0.20
2023-03-04T13:11:53.631Z,0.20
2023-03-04T13:14:20.184Z,0.20
2023-03-04T13:16:50.642Z,0.20
2023-03-04T13:19:52.992Z,0.10
2023-03-04T13:22:38.423Z,0.20
2023-03-04T13:25:35.823Z,0.20
2023-03-04T13:28:02.868Z,0.20
2023-03-04T13:30:32.255Z,0.20
2023-03-04T13:33:21.862Z,0.20
2023-03-04T13:36:04.284Z,0.10
2023-03-04T13:38:31.241Z,0.20
2023-03-04T13:41:47.206Z,0.10
2023-03-04T13:44:44.116Z,0.10
2023-03-04T13:47:20.230Z,0.20
2023-03-04T13:49:47.279Z,0.13
2023-03-04T13:52:49.860Z,0.20
2023-03-04T13:55:34.884Z,0.20
2023-03-04T13:58:08.596Z,0.20
2023-03-04T14:00:36.203Z,0.20
2023-03-04T14:03:23.324Z,0.10
2023-03-04T14:06:10.138Z,0.20
2023-03-04T14:08:36.732Z,0.20
2023-03-04T14:11:03.375Z,0.10
2023-03-04T14:13:30.122Z,0.20
2023-03-04T14:15:59.768Z,0.10
2023-03-04T14:18:28.138Z,0.20
2023-03-04T14:20:59.125Z,0.20
2023-03-04T14:23:35.071Z,0.20
2023-03-04T14:26:04.756Z,0.10
2023-03-04T14:28:31.474Z,0.10
2023-03-04T14:30:58.525Z,0.20
2023-03-04T14:33:27.888Z,0.20
2023-03-04T14:35:57.761Z,0.17
2023-03-04T14:38:28.091Z,0.20
2023-03-04T14:41:22.177Z,0.20
2023-03-04T14:44:48.729Z,0.20
2023-03-04T14:47:40.365Z,0.10
2023-03-04T14:50:12.612Z,0.20
2023-03-04T14:52:43.467Z,0.15
2023-03-04T14:55:22.373Z,0.10
2023-03-04T14:57:58.276Z,0.10
2023-03-04T15:00:33.936Z,0.10
2023-03-04T15:03:03.532Z,0.20
2023-03-04T15:05:33.500Z,0.10
2023-03-04T15:08:04.148Z,0.20
2023-03-04T15:10:36.911Z,0.20
2023-03-04T15:13:06.601Z,0.10
2023-03-04T15:15:41.291Z,0.15
2023-03-04T15:18:27.796Z,0.20
2023-03-04T15:21:00.734Z,0.20
2023-03-04T15:23:30.105Z,0.20
2023-03-04T15:26:02.152Z,0.20
2023-03-04T15:28:37.135Z,0.10
2023-03-04T15:31:14.820Z,0.20
2023-03-04T15:33:41.570Z,0.10
2023-03-04T15:36:16.473Z,0.10
2023-03-04T15:38:47.796Z,0.10
2023-03-04T15:41:19.340Z,0.20
2023-03-04T15:43:45.915Z,0.10
2023-03-04T15:46:12.536Z,0.10
2023-03-04T15:48:39.121Z,0.20
2023-03-04T15:51:12.647Z,0.20
2023-03-04T15:53:42.224Z,0.20
2023-03-04T15:56:13.910Z,0.20
2023-03-04T15:58:41.212Z,0.10
2023-03-04T16:01:12.424Z,0.20
2023-03-04T16:03:39.144Z,0.10
2023-03-04T16:06:10.519Z,0.10
2023-03-04T16:08:37.372Z,0.10
2023-03-04T16:11:04.576Z,0.10
2023-03-04T16:13:31.182Z,0.10
2023-03-04T16:15:57.833Z,0.20
2023-03-04T16:18:24.585Z,0.20
2023-03-04T16:20:51.659Z,0.10
2023-03-04T16:23:23.911Z,0.10
2023-03-04T16:25:55.083Z,0.20
2023-03-04T16:28:22.661Z,0.20
2023-03-04T16:30:49.717Z,0.20
2023-03-04T16:33:16.755Z,0.10
2023-03-04T16:35:44.148Z,0.20
2023-03-04T16:38:20.046Z,0.20
2023-03-04T16:40:46.843Z,0.20
2023-03-04T16:43:14.801Z,0.10
2023-03-04T16:45:41.539Z,0.15
2023-03-04T16:48:08.279Z,0.20
2023-03-04T16:50:36.241Z,0.20
2023-03-04T16:53:03.764Z,0.10
2023-03-04T16:55:31.619Z,0.20
2023-03-04T16:57:58.681Z,0.10
2023-03-04T17:00:28.173Z,0.20
2023-03-04T17:02:57.689Z,0.20
2023-03-04T17:05:27.785Z,0.20
2023-03-04T17:07:54.461Z,0.10
2023-03-04T17:10:23.298Z,0.10
2023-03-04T17:12:50.981Z,0.10
2023-03-04T17:15:18.097Z,0.10
2023-03-04T17:17:44.885Z,0.10
2023-03-04T17:20:14.750Z,0.10
2023-03-04T17:22:41.446Z,0.20
2023-03-04T17:25:08.991Z,0.20
2023-03-04T17:27:35.980Z,0.20
2023-03-04T17:30:04.220Z,0.20
2023-03-04T17:32:32.686Z,0.13
2023-03-04T17:34:59.955Z,0.20
2023-03-04T17:37:27.152Z,0.20
2023-03-04T17:39:53.825Z,0.20
2023-03-04T17:42:20.653Z,0.20
2023-03-04T17:44:47.575Z,0.10
2023-03-04T17:47:15.350Z,0.20
2023-03-04T17:49:42.053Z,0.20
2023-03-04T17:52:08.848Z,0.20
2023-03-04T17:54:36.735Z,0.20
2023-03-04T17:57:03.957Z,0.20
2023-03-04T17:59:30.604Z,0.20
2023-03-04T18:01:57.310Z,0.10
2023-03-04T18:04:24.332Z,0.20
2023-03-04T18:06:51.025Z,0.10
2023-03-04T18:09:17.736Z,0.10
2023-03-04T18:11:44.417Z,0.20
2023-03-04T18:14:12.819Z,0.20
2023-03-04T18:16:40.351Z,0.13
2023-03-04T18:19:09.434Z,0.20
2023-03-04T18:21:36.342Z,0.10
2023-03-04T18:24:03.259Z,0.15
2023-03-04T18:26:30.035Z,0.15
2023-03-04T18:28:57.521Z,0.10
2023-03-04T18:31:31.009Z,0.20
2023-03-04T18:34:00.917Z,0.20
2023-03-04T18:36:27.768Z,0.20
2023-03-04T18:38:55.086Z,0.20
2023-03-04T18:41:21.760Z,0.20
2023-03-04T18:43:48.539Z,0.20
2023-03-04T18:46:18.327Z,0.22
2023-03-04T18:48:52.146Z,0.20
2023-03-04T18:53:46.122Z,0.20
2023-03-04T18:56:24.174Z,0.20
2023-03-04T18:58:51.607Z,0.20
2023-03-04T19:01:22.053Z,0.20
2023-03-04T19:03:50.642Z,0.20
2023-03-04T19:06:17.652Z,0.20
2023-03-04T19:08:44.408Z,0.20
2023-03-04T19:11:11.043Z,0.10
2023-03-04T19:13:37.701Z,0.20
2023-03-04T19:16:04.558Z,0.20
2023-03-04T19:18:31.228Z,0.20
2023-03-04T19:21:00.136Z,0.20
2023-03-04T19:23:27.314Z,0.20
2023-03-04T19:25:53.982Z,0.20
2023-03-04T19:28:20.728Z,0.20
2023-03-04T19:30:47.481Z,0.20
2023-03-04T19:33:14.234Z,0.10
2023-03-04T19:35:43.048Z,0.20
2023-03-04T19:38:09.770Z,0.20
2023-03-04T19:40:40.490Z,0.10
2023-03-04T19:43:07.963Z,0.20
2023-03-04T19:45:35.082Z,0.20
2023-03-04T19:48:03.173Z,0.20
2023-03-04T19:50:30.316Z,0.20
2023-03-04T19:52:57.230Z,0.20
2023-03-04T19:55:24.050Z,0.10
2023-03-04T19:57:50.682Z,0.20
2023-03-04T20:00:17.739Z,0.10
2023-03-04T20:02:45.636Z,0.20
2023-03-04T20:05:13.584Z,0.20
2023-03-04T20:07:40.541Z,0.20
2023-03-04T20:10:07.926Z,0.20
2023-03-04T20:12:36.336Z,0.20
2023-03-04T20:15:06.174Z,0.10
2023-03-04T20:17:32.818Z,0.20
2023-03-04T20:19:59.395Z,0.20
2023-03-04T20:22:26.158Z,0.10
2023-03-04T20:24:54.925Z,0.20
2023-03-04T20:27:21.539Z,0.20
2023-03-04T20:29:49.037Z,0.20
2023-03-04T20:32:15.923Z,0.20
2023-03-04T20:34:42.490Z,0.22
2023-03-04T20:37:09.209Z,0.20
2023-03-04T20:39:35.831Z,0.20
2023-03-04T20:42:03.247Z,0.20
2023-03-04T20:44:29.835Z,0.20
2023-03-04T20:46:56.798Z,0.20
2023-03-04T20:49:26.342Z,0.20
2023-03-04T20:51:54.979Z,0.20
2023-03-04T20:54:22.056Z,0.20
2023-03-04T20:56:48.771Z,0.20
2023-03-04T20:59:16.006Z,0.20
2023-03-04T21:01:45.403Z,0.20
2023-03-04T21:04:12.122Z,0.20
2023-03-04T21:06:39.710Z,0.20
2023-03-04T21:09:09.631Z,0.20
2023-03-04T21:11:40.524Z,0.10
2023-03-04T21:14:19.496Z,0.30
2023-03-04T21:16:46.560Z,0.30
2023-03-04T21:19:15.823Z,0.20
2023-03-04T21:21:42.684Z,0.20
2023-03-04T21:24:14.277Z,0.20
2023-03-04T21:26:43.095Z,0.20
2023-03-04T21:29:09.824Z,0.20
2023-03-04T21:31:40.032Z,0.20
2023-03-04T21:34:14.896Z,0.30
2023-03-04T21:36:41.525Z,0.20
2023-03-04T21:39:08.317Z,0.20
2023-03-04T21:41:34.925Z,0.20
2023-03-04T21:44:01.603Z,0.20
2023-03-04T21:46:28.212Z,0.20
2023-03-04T21:48:54.898Z,0.20
2023-03-04T21:51:21.686Z,0.25
2023-03-04T21:53:48.278Z,0.20
2023-03-04T21:56:15.704Z,0.20
2023-03-04T21:58:42.475Z,0.20
2023-03-04T22:01:21.027Z,0.17
2023-03-04T22:03:51.981Z,0.20
2023-03-04T22:06:22.623Z,0.20
2023-03-04T22:08:50.499Z,0.20
2023-03-04T22:11:17.487Z,0.20
2023-03-04T22:13:44.128Z,0.20
2023-03-04T22:16:10.966Z,0.20
2023-03-04T22:18:40.788Z,0.10
2023-03-04T22:21:12.656Z,0.20
2023-03-04T22:23:39.804Z,0.20
2023-03-04T22:26:11.027Z,0.20
2023-03-04T22:28:38.301Z,0.20
2023-03-04T22:31:31.582Z,0.15
2023-03-04T22:34:00.593Z,0.20
2023-03-04T22:36:29.568Z,0.20
2023-03-04T22:38:56.704Z,0.20
2023-03-04T22:41:23.489Z,0.20
2023-03-04T22:43:50.784Z,0.20
2023-03-04T22:46:21.144Z,0.20
2023-03-04T22:48:49.235Z,0.20
2023-03-04T22:51:16.394Z,0.20
2023-03-04T22:53:43.637Z,0.20
2023-03-04T22:56:12.318Z,0.30
2023-03-04T22:58:39.040Z,0.20
2023-03-04T23:01:06.861Z,0.20
2023-03-04T23:03:34.319Z,0.20
2023-03-04T23:06:09.637Z,0.20
2023-03-04T23:08:37.836Z,0.20
2023-03-04T23:11:35.434Z,0.20
2023-03-04T23:14:06.497Z,0.20
2023-03-04T23:16:37.152Z,0.20
2023-03-04T23:19:06.098Z,0.20
2023-03-04T23:21:34.041Z,0.20
2023-03-04T23:24:02.653Z,0.20
2023-03-04T23:26:32.472Z,0.20
2023-03-04T23:29:01.617Z,0.20
2023-03-04T23:31:29.411Z,0.20
2023-03-04T23:33:57.580Z,0.20
2023-03-04T23:36:27.305Z,0.20
2023-03-04T23:38:54.055Z,0.20
2023-03-04T23:41:23.286Z,0.20
2023-03-04T23:43:51.916Z,0.25
2023-03-04T23:46:19.287Z,0.25
2023-03-04T23:48:46.540Z,0.20
2023-03-04T23:51:22.144Z,0.20
2023-03-04T23:53:49.057Z,0.20
2023-03-04T23:56:21.743Z,0.10
2023-03-04T23:58:49.180Z,0.20
